createdAt,value
2018-09-23T00:00:40.377Z,25.63
2018-09-23T00:03:09.139Z,26.23
2018-09-23T00:05:37.986Z,27.23
2018-09-23T00:08:07.175Z,21.30
2018-09-23T00:10:35.830Z,27.33
2018-09-23T00:13:04.808Z,21.30
2018-09-23T00:15:33.686Z,26.97
2018-09-23T00:18:02.440Z,26.23
2018-09-23T00:20:31.115Z,27.67
2018-09-23T00:23:00.813Z,23.53
2018-09-23T00:25:29.552Z,25.33
2018-09-23T00:27:58.367Z,25.57
2018-09-23T00:30:27.538Z,24.37
2018-09-23T00:32:56.456Z,30.33
2018-09-23T00:35:25.452Z,30.00
2018-09-23T00:37:54.557Z,26.47
2018-09-23T00:40:23.538Z,32.13
2018-09-23T00:42:52.636Z,23.90
2018-09-23T00:45:21.331Z,27.97
2018-09-23T00:47:50.258Z,28.70
2018-09-23T00:50:19.051Z,29.33
2018-09-23T00:52:47.698Z,27.23
2018-09-23T00:55:16.413Z,26.13
2018-09-23T00:57:45.575Z,27.40
2018-09-23T01:00:14.393Z,27.27
2018-09-23T01:02:43.204Z,31.03
2018-09-23T01:05:11.900Z,27.80
2018-09-23T01:07:40.803Z,29.33
2018-09-23T01:10:09.860Z,29.57
2018-09-23T01:12:38.815Z,24.07
2018-09-23T01:15:07.658Z,25.83
2018-09-23T01:17:36.574Z,27.13
2018-09-23T01:20:05.553Z,28.67
2018-09-23T01:22:34.339Z,29.40
2018-09-23T01:25:03.186Z,27.77
2018-09-23T01:27:31.966Z,29.70
2018-09-23T01:30:00.794Z,32.20
2018-09-23T01:32:30.097Z,32.67
2018-09-23T01:34:58.663Z,33.37
2018-09-23T01:37:27.810Z,28.03
2018-09-23T01:39:56.767Z,28.80
2018-09-23T01:42:25.970Z,28.97
2018-09-23T01:44:55.062Z,35.47
2018-09-23T01:47:24.263Z,28.90
2018-09-23T01:49:52.959Z,31.60
2018-09-23T01:52:21.766Z,29.30
2018-09-23T01:54:50.610Z,31.90
2018-09-23T01:57:19.642Z,34.40
2018-09-23T01:59:48.803Z,29.30
2018-09-23T02:02:17.465Z,28.13
2018-09-23T02:04:46.763Z,29.20
2018-09-23T02:07:15.631Z,32.20
2018-09-23T02:09:44.456Z,34.30
2018-09-23T02:12:13.218Z,29.10
2018-09-23T02:14:42.250Z,26.50
2018-09-23T02:17:11.055Z,33.57
2018-09-23T02:19:40.172Z,31.23
2018-09-23T02:22:08.813Z,27.10
2018-09-23T02:24:37.639Z,38.50
2018-09-23T02:27:06.782Z,35.53
2018-09-23T02:29:35.672Z,28.00
2018-09-23T02:32:04.621Z,25.83
2018-09-23T02:34:33.622Z,30.20
2018-09-23T02:37:02.567Z,28.17
2018-09-23T02:39:31.381Z,32.07
2018-09-23T02:42:00.395Z,31.13
2018-09-23T02:44:29.349Z,27.13
2018-09-23T02:46:58.194Z,27.77
2018-09-23T02:49:27.031Z,26.53
2018-09-23T02:51:55.959Z,33.30
2018-09-23T02:54:24.715Z,34.40
2018-09-23T02:56:53.858Z,27.80
2018-09-23T02:59:22.647Z,39.90
2018-09-23T03:01:51.652Z,33.30
2018-09-23T03:04:20.589Z,33.67
2018-09-23T03:06:49.182Z,26.57
2018-09-23T03:09:18.407Z,28.57
2018-09-23T03:11:47.157Z,29.70
2018-09-23T03:14:16.064Z,33.60
2018-09-23T03:16:44.977Z,34.83
2018-09-23T03:19:13.990Z,29.83
2018-09-23T03:21:42.619Z,33.23
2018-09-23T03:24:11.583Z,33.57
2018-09-23T03:26:40.223Z,37.07
2018-09-23T03:29:09.043Z,28.33
2018-09-23T03:31:38.023Z,29.13
2018-09-23T03:34:06.981Z,28.47
2018-09-23T03:36:35.902Z,30.37
2018-09-23T03:39:05.862Z,27.17
2018-09-23T03:41:35.078Z,39.47
2018-09-23T03:44:04.138Z,30.03
2018-09-23T03:46:33.015Z,27.30
2018-09-23T03:49:01.989Z,27.23
2018-09-23T03:51:30.813Z,30.10
2018-09-23T03:53:59.582Z,26.80
2018-09-23T03:56:28.699Z,30.80
2018-09-23T03:58:57.876Z,29.00
2018-09-23T04:01:26.852Z,25.30
2018-09-23T04:03:55.594Z,26.80
2018-09-23T04:06:24.482Z,30.87
2018-09-23T04:08:53.494Z,31.00
2018-09-23T04:11:22.337Z,38.63
2018-09-23T04:13:51.171Z,30.73
2018-09-23T04:16:20.066Z,33.77
2018-09-23T04:18:48.806Z,29.70
2018-09-23T04:21:17.572Z,41.90
2018-09-23T04:23:46.482Z,32.27
2018-09-23T04:26:15.502Z,33.70
2018-09-23T04:28:44.249Z,32.40
2018-09-23T04:31:13.059Z,35.53
2018-09-23T04:33:41.784Z,31.70
2018-09-23T04:36:10.767Z,33.83
2018-09-23T04:38:39.775Z,30.53
2018-09-23T04:41:08.767Z,33.47
2018-09-23T04:43:37.373Z,30.77
2018-09-23T04:46:06.486Z,30.97
2018-09-23T04:48:35.168Z,37.40
2018-09-23T04:51:03.820Z,33.13
2018-09-23T04:53:32.719Z,35.90
2018-09-23T04:56:01.920Z,31.10
2018-09-23T04:58:30.909Z,34.13
2018-09-23T05:00:59.838Z,30.47
2018-09-23T05:03:28.821Z,33.07
2018-09-23T05:05:57.919Z,35.53
2018-09-23T05:08:26.559Z,33.67
2018-09-23T05:10:55.309Z,37.90
2018-09-23T05:13:24.233Z,32.00
2018-09-23T05:15:53.176Z,30.17
2018-09-23T05:18:21.974Z,26.97
2018-09-23T05:20:50.963Z,36.83
2018-09-23T05:23:19.983Z,36.63
2018-09-23T05:25:48.931Z,27.80
2018-09-23T05:28:17.922Z,29.63
2018-09-23T05:30:46.888Z,29.00
2018-09-23T05:33:15.574Z,30.23
2018-09-23T05:35:44.765Z,41.43
2018-09-23T05:38:13.546Z,29.67
2018-09-23T05:40:42.799Z,33.03
2018-09-23T05:43:11.842Z,31.23
2018-09-23T05:45:40.607Z,27.87
2018-09-23T05:48:09.711Z,26.47
2018-09-23T05:50:38.823Z,37.77
2018-09-23T05:53:07.567Z,29.47
2018-09-23T05:55:36.964Z,35.33
2018-09-23T05:58:06.123Z,25.40
2018-09-23T06:00:40.268Z,23.97
2018-09-23T06:03:09.167Z,27.77
2018-09-23T06:05:38.044Z,32.80
2018-09-23T06:08:07.127Z,28.70
2018-09-23T06:10:36.087Z,32.07
2018-09-23T06:13:04.804Z,21.60
2018-09-23T06:15:33.659Z,29.03
2018-09-23T06:18:02.410Z,30.57
2018-09-23T06:20:31.327Z,31.60
2018-09-23T06:23:00.420Z,28.43
2018-09-23T06:25:29.228Z,20.63
2018-09-23T06:27:58.121Z,28.07
2018-09-23T06:30:26.756Z,19.87
2018-09-23T06:32:55.563Z,28.67
2018-09-23T06:35:24.395Z,20.23
2018-09-23T06:37:53.329Z,28.27
2018-09-23T06:40:22.017Z,20.80
2018-09-23T06:42:50.608Z,21.30
2018-09-23T06:45:19.455Z,26.07
2018-09-23T06:47:48.531Z,20.23
2018-09-23T06:50:17.419Z,25.60
2018-09-23T06:52:46.551Z,25.57
2018-09-23T06:55:15.676Z,13.60
2018-09-23T06:57:50.034Z,23.07
2018-09-23T07:00:18.938Z,20.20
2018-09-23T07:02:47.888Z,26.93
2018-09-23T07:05:16.784Z,20.37
2018-09-23T07:07:45.930Z,23.10
2018-09-23T07:10:14.731Z,20.53
2018-09-23T07:12:43.410Z,21.83
2018-09-23T07:15:12.094Z,19.97
2018-09-23T07:17:41.125Z,19.13
2018-09-23T07:20:09.940Z,17.27
2018-09-23T07:22:39.092Z,28.17
2018-09-23T07:25:08.057Z,28.13
2018-09-23T07:27:37.079Z,30.70
2018-09-23T07:30:06.369Z,18.77
2018-09-23T07:32:35.095Z,20.43
2018-09-23T07:35:04.039Z,19.83
2018-09-23T07:37:32.963Z,16.23
2018-09-23T07:40:01.724Z,22.57
2018-09-23T07:42:30.313Z,21.90
2018-09-23T07:44:59.018Z,33.23
2018-09-23T07:47:27.820Z,17.47
2018-09-23T07:49:56.731Z,23.93
2018-09-23T07:52:25.494Z,15.07
2018-09-23T07:54:54.491Z,24.40
2018-09-23T07:57:23.613Z,17.67
2018-09-23T07:59:52.812Z,22.87
2018-09-23T08:02:21.810Z,18.33
2018-09-23T08:04:50.798Z,22.50
2018-09-23T08:07:20.031Z,20.27
2018-09-23T08:09:48.876Z,21.97
2018-09-23T08:12:17.477Z,18.57
2018-09-23T08:14:46.691Z,20.63
2018-09-23T08:17:15.127Z,17.33
2018-09-23T08:19:44.259Z,25.50
2018-09-23T08:22:13.071Z,27.47
2018-09-23T08:24:41.970Z,18.57
2018-09-23T08:27:10.925Z,17.90
2018-09-23T08:29:39.853Z,19.93
2018-09-23T08:32:09.062Z,19.33
2018-09-23T08:34:37.904Z,28.27
2018-09-23T08:37:06.906Z,23.60
2018-09-23T08:39:35.995Z,20.00
2018-09-23T08:42:04.690Z,29.00
2018-09-23T08:44:33.679Z,16.57
2018-09-23T08:47:02.810Z,29.67
2018-09-23T08:49:31.921Z,18.47
2018-09-23T08:52:00.897Z,20.60
2018-09-23T08:54:29.903Z,17.97
2018-09-23T08:56:58.571Z,17.17
2018-09-23T08:59:27.380Z,15.70
2018-09-23T09:01:56.299Z,25.20
2018-09-23T09:04:25.369Z,24.63
2018-09-23T09:06:54.590Z,15.53
2018-09-23T09:09:23.428Z,15.28
2018-09-23T09:11:52.167Z,27.87
2018-09-23T09:14:21.276Z,20.97
2018-09-23T09:16:50.575Z,18.80
2018-09-23T09:19:19.428Z,23.92
2018-09-23T09:21:48.329Z,19.27
2018-09-23T09:24:17.090Z,21.25
2018-09-23T09:26:46.132Z,15.95
2018-09-23T09:29:15.161Z,23.52
2018-09-23T09:31:44.022Z,17.80
2018-09-23T09:34:13.128Z,23.40
2018-09-23T09:36:41.866Z,28.35
2018-09-23T09:39:11.525Z,20.95
2018-09-23T09:41:40.971Z,20.37
2018-09-23T09:44:10.183Z,16.20
2018-09-23T09:46:39.049Z,25.52
2018-09-23T09:49:07.969Z,21.48
2018-09-23T09:51:36.725Z,21.12
2018-09-23T09:54:05.751Z,17.52
2018-09-23T09:56:34.732Z,20.12
2018-09-23T09:59:03.648Z,21.82
2018-09-23T10:01:32.604Z,27.02
2018-09-23T10:04:01.701Z,20.15
2018-09-23T10:06:30.509Z,18.42
2018-09-23T10:08:59.279Z,31.55
2018-09-23T10:11:28.210Z,25.57
2018-09-23T10:13:57.002Z,18.37
2018-09-23T10:16:25.813Z,19.65
2018-09-23T10:18:54.746Z,26.80
2018-09-23T10:21:24.067Z,27.82
2018-09-23T10:23:52.871Z,26.50
2018-09-23T10:26:21.860Z,20.65
2018-09-23T10:28:50.507Z,26.40
2018-09-23T10:31:19.355Z,20.57
2018-09-23T10:33:48.077Z,18.98
2018-09-23T10:36:17.213Z,18.75
2018-09-23T10:38:45.977Z,19.17
2018-09-23T10:41:14.725Z,14.68
2018-09-23T10:43:43.599Z,16.30
2018-09-23T10:46:12.486Z,16.97
2018-09-23T10:48:41.222Z,23.60
2018-09-23T10:51:10.316Z,15.28
2018-09-23T10:53:39.305Z,25.40
2018-09-23T10:56:08.373Z,18.98
2018-09-23T10:58:37.285Z,25.43
2018-09-23T11:01:06.510Z,19.32
2018-09-23T11:03:35.509Z,19.65
2018-09-23T11:06:04.204Z,15.58
2018-09-23T11:08:32.987Z,21.17
2018-09-23T11:11:01.666Z,19.07
2018-09-23T11:13:30.607Z,17.35
2018-09-23T11:15:59.348Z,18.27
2018-09-23T11:18:28.275Z,17.12
2018-09-23T11:20:57.002Z,17.00
2018-09-23T11:23:26.004Z,12.98
2018-09-23T11:25:54.966Z,19.73
2018-09-23T11:28:23.851Z,15.75
2018-09-23T11:30:52.787Z,15.55
2018-09-23T11:33:21.689Z,16.35
2018-09-23T11:35:50.404Z,16.05
2018-09-23T11:38:19.038Z,11.88
2018-09-23T11:40:47.679Z,13.55
2018-09-23T11:43:16.546Z,14.18
2018-09-23T11:45:45.622Z,13.45
2018-09-23T11:48:14.454Z,16.87
2018-09-23T11:50:44.324Z,26.20
2018-09-23T11:53:13.204Z,21.27
2018-09-23T11:55:42.342Z,16.35
2018-09-23T11:58:11.689Z,12.05
2018-09-23T12:00:40.596Z,13.85
2018-09-23T12:03:09.619Z,21.42
2018-09-23T12:05:38.486Z,13.43
2018-09-23T12:08:07.608Z,13.70
2018-09-23T12:10:36.523Z,14.78
2018-09-23T12:13:05.292Z,14.38
2018-09-23T12:15:34.058Z,16.10
2018-09-23T12:18:02.970Z,12.73
2018-09-23T12:20:31.633Z,16.20
2018-09-23T12:23:00.695Z,16.17
2018-09-23T12:25:29.825Z,13.35
2018-09-23T12:27:58.472Z,12.45
2018-09-23T12:30:27.358Z,14.10
2018-09-23T12:32:56.231Z,14.15
2018-09-23T12:35:25.047Z,14.83
2018-09-23T12:37:53.634Z,19.23
2018-09-23T12:40:22.362Z,15.45
2018-09-23T12:42:51.272Z,20.65
2018-09-23T12:45:20.303Z,11.95
2018-09-23T12:47:49.461Z,16.52
2018-09-23T12:50:18.816Z,16.10
2018-09-23T12:52:47.927Z,11.50
2018-09-23T12:55:17.005Z,12.25
2018-09-23T12:57:46.019Z,19.98
2018-09-23T13:00:15.007Z,12.82
2018-09-23T13:02:43.739Z,11.08
2018-09-23T13:05:12.667Z,11.20
2018-09-23T13:07:41.399Z,15.15
2018-09-23T13:10:10.092Z,13.65
2018-09-23T13:12:38.932Z,12.37
2018-09-23T13:15:08.247Z,12.78
2018-09-23T13:17:37.339Z,10.18
2018-09-23T13:20:06.853Z,11.30
2018-09-23T13:22:35.501Z,15.58
2018-09-23T13:25:04.785Z,10.30
2018-09-23T13:27:33.551Z,14.53
2018-09-23T13:30:02.790Z,11.38
2018-09-23T13:32:31.775Z,13.22
2018-09-23T13:35:00.477Z,11.68
2018-09-23T13:37:29.152Z,12.63
2018-09-23T13:39:57.962Z,10.78
2018-09-23T13:42:26.917Z,12.75
2018-09-23T13:44:55.783Z,9.73
2018-09-23T13:47:24.717Z,10.50
2018-09-23T13:49:53.965Z,15.53
2018-09-23T13:52:23.104Z,10.32
2018-09-23T13:54:52.267Z,10.75
2018-09-23T13:57:21.193Z,10.08
2018-09-23T13:59:50.299Z,10.13
2018-09-23T14:02:19.054Z,10.50
2018-09-23T14:04:47.683Z,10.45
2018-09-23T14:07:16.291Z,10.40
2018-09-23T14:09:45.540Z,21.20
2018-09-23T14:12:14.519Z,11.30
2018-09-23T14:14:43.181Z,11.50
2018-09-23T14:17:12.230Z,13.00
2018-09-23T14:19:41.329Z,12.80
2018-09-23T14:22:10.379Z,13.38
2018-09-23T14:24:39.507Z,14.07
2018-09-23T14:27:08.383Z,13.20
2018-09-23T14:29:37.302Z,14.45
2018-09-23T14:32:06.088Z,10.93
2018-09-23T14:34:35.156Z,13.00
2018-09-23T14:37:03.924Z,14.35
2018-09-23T14:39:33.074Z,12.95
2018-09-23T14:42:01.812Z,10.95
2018-09-23T14:44:30.859Z,11.53
2018-09-23T14:46:59.843Z,13.00
2018-09-23T14:49:28.966Z,13.25
2018-09-23T14:51:57.619Z,12.23
2018-09-23T14:54:26.618Z,11.43
2018-09-23T14:56:55.290Z,12.85
2018-09-23T14:59:24.287Z,12.85
2018-09-23T15:01:53.483Z,13.50
2018-09-23T15:04:22.230Z,17.82
2018-09-23T15:06:50.970Z,14.78
2018-09-23T15:09:19.892Z,11.85
2018-09-23T15:11:49.166Z,13.28
2018-09-23T15:14:18.079Z,14.63
2018-09-23T15:16:47.076Z,13.15
2018-09-23T15:19:16.046Z,12.63
2018-09-23T15:21:45.281Z,11.80
2018-09-23T15:24:14.091Z,19.48
2018-09-23T15:26:43.073Z,13.55
2018-09-23T15:29:12.165Z,12.15
2018-09-23T15:31:40.930Z,17.02
2018-09-23T15:34:10.103Z,10.85
2018-09-23T15:36:39.020Z,13.13
2018-09-23T15:39:08.934Z,13.78
2018-09-23T15:41:38.250Z,16.12
2018-09-23T15:44:07.629Z,18.82
2018-09-23T15:46:36.469Z,12.80
2018-09-23T15:49:05.474Z,16.02
2018-09-23T15:51:34.342Z,12.88
2018-09-23T15:54:03.258Z,14.18
2018-09-23T15:56:31.958Z,13.80
2018-09-23T15:59:02.301Z,17.70
2018-09-23T16:01:31.107Z,18.20
2018-09-23T16:03:59.820Z,12.03
2018-09-23T16:06:28.786Z,42.65
2018-09-23T16:08:57.712Z,34.73
2018-09-23T16:11:27.083Z,63.02
2018-09-23T16:13:56.005Z,34.05
2018-09-23T16:16:24.995Z,29.50
2018-09-23T16:18:53.927Z,27.45
2018-09-23T16:21:23.053Z,27.90
2018-09-23T16:23:52.243Z,29.60
2018-09-23T16:26:21.265Z,30.40
2018-09-23T16:28:50.106Z,30.40
2018-09-23T16:31:18.895Z,29.30
2018-09-23T16:33:47.653Z,39.38
2018-09-23T16:36:16.424Z,39.35
2018-09-23T16:38:45.434Z,38.53
2018-09-23T16:41:14.104Z,32.50
2018-09-23T16:43:43.302Z,29.70
2018-09-23T16:46:12.391Z,29.77
2018-09-23T16:48:41.461Z,25.70
2018-09-23T16:51:10.299Z,23.22
2018-09-23T16:53:39.234Z,22.82
2018-09-23T16:56:08.299Z,20.72
2018-09-23T16:58:37.026Z,26.37
2018-09-23T17:01:05.701Z,25.92
2018-09-23T17:03:34.345Z,22.10
2018-09-23T17:06:03.354Z,25.43
2018-09-23T17:08:32.197Z,28.27
2018-09-23T17:11:01.133Z,26.37
2018-09-23T17:13:30.099Z,28.70
2018-09-23T17:15:58.993Z,37.27
2018-09-23T17:18:27.814Z,27.97
2018-09-23T17:20:57.119Z,34.20
2018-09-23T17:23:25.882Z,27.70
2018-09-23T17:25:54.913Z,33.80
2018-09-23T17:28:23.707Z,24.53
2018-09-23T17:30:52.360Z,20.30
2018-09-23T17:33:21.302Z,23.90
2018-09-23T17:35:50.213Z,21.23
2018-09-23T17:38:18.935Z,21.20
2018-09-23T17:40:47.913Z,24.83
2018-09-23T17:43:16.888Z,17.13
2018-09-23T17:45:45.820Z,18.90
2018-09-23T17:48:14.894Z,22.70
2018-09-23T17:50:43.762Z,22.63
2018-09-23T17:53:12.591Z,27.20
2018-09-23T17:55:41.381Z,26.47
2018-09-23T17:58:10.059Z,29.43
2018-09-23T18:00:42.942Z,35.37
2018-09-23T18:03:12.740Z,28.80
2018-09-23T18:05:41.687Z,28.17
2018-09-23T18:08:11.064Z,23.47
2018-09-23T18:10:39.837Z,19.73
2018-09-23T18:13:08.881Z,32.60
2018-09-23T18:15:37.868Z,21.17
2018-09-23T18:18:06.830Z,23.47
2018-09-23T18:20:35.825Z,21.60
2018-09-23T18:23:04.742Z,29.47
2018-09-23T18:25:33.667Z,22.17
2018-09-23T18:28:02.317Z,21.23
2018-09-23T18:30:31.144Z,19.93
2018-09-23T18:33:00.551Z,26.13
2018-09-23T18:35:29.582Z,17.07
2018-09-23T18:37:58.565Z,25.63
2018-09-23T18:40:27.552Z,27.33
2018-09-23T18:42:56.432Z,21.60
2018-09-23T18:45:25.490Z,19.93
2018-09-23T18:47:54.223Z,18.10
2018-09-23T18:50:23.043Z,22.90
2018-09-23T18:52:57.423Z,21.50
2018-09-23T18:55:31.209Z,19.83
2018-09-23T18:58:00.297Z,19.67
2018-09-23T19:00:29.069Z,23.33
2018-09-23T19:02:58.316Z,25.97
2018-09-23T19:05:27.030Z,15.70
2018-09-23T19:07:55.939Z,20.53
2018-09-23T19:10:24.907Z,19.30
2018-09-23T19:12:59.020Z,19.27
2018-09-23T19:15:27.743Z,16.00
2018-09-23T19:17:56.691Z,18.00
2018-09-23T19:20:26.062Z,23.60
2018-09-23T19:23:00.019Z,22.00
2018-09-23T19:25:29.097Z,24.20
2018-09-23T19:27:57.796Z,22.00
2018-09-23T19:30:26.518Z,17.13
2018-09-23T19:32:55.405Z,18.33
2018-09-23T19:35:24.483Z,23.10
2018-09-23T19:37:53.690Z,19.97
2018-09-23T19:40:22.558Z,23.33
2018-09-23T19:42:51.595Z,24.50
2018-09-23T19:45:20.699Z,23.40
2018-09-23T19:47:49.791Z,23.07
2018-09-23T19:50:18.462Z,25.97
2018-09-23T19:52:47.443Z,23.70
2018-09-23T19:55:16.226Z,16.80
2018-09-23T19:57:44.808Z,21.40
2018-09-23T20:00:13.672Z,26.80
2018-09-23T20:02:42.430Z,16.87
2018-09-23T20:05:11.474Z,19.87
2018-09-23T20:07:40.537Z,21.23
2018-09-23T20:10:09.514Z,18.83
2018-09-23T20:12:38.689Z,17.17
2018-09-23T20:15:12.767Z,19.13
2018-09-23T20:17:41.616Z,18.93
2018-09-23T20:20:10.757Z,25.13
2018-09-23T20:22:39.582Z,22.30
2018-09-23T20:25:08.319Z,17.60
2018-09-23T20:27:37.073Z,18.87
2018-09-23T20:30:06.348Z,17.73
2018-09-23T20:32:35.368Z,15.80
2018-09-23T20:35:05.281Z,20.23
2018-09-23T20:37:34.342Z,16.23
2018-09-23T20:40:03.460Z,20.27
2018-09-23T20:42:32.568Z,18.17
2018-09-23T20:45:02.079Z,14.60
2018-09-23T20:47:30.804Z,17.27
2018-09-23T20:49:59.928Z,22.73
2018-09-23T20:52:28.561Z,18.40
2018-09-23T20:54:57.300Z,17.27
2018-09-23T20:57:26.055Z,16.67
2018-09-23T20:59:54.973Z,18.90
2018-09-23T21:02:23.736Z,16.63
2018-09-23T21:04:52.683Z,20.63
2018-09-23T21:07:21.686Z,17.97
2018-09-23T21:09:50.448Z,21.13
2018-09-23T21:12:19.581Z,22.37
2018-09-23T21:14:48.331Z,20.83
2018-09-23T21:17:17.103Z,21.07
2018-09-23T21:19:46.015Z,18.20
2018-09-23T21:22:14.920Z,20.53
2018-09-23T21:24:43.569Z,17.60
2018-09-23T21:27:12.414Z,16.00
2018-09-23T21:29:41.165Z,19.13
2018-09-23T21:32:10.218Z,17.57
2018-09-23T21:34:39.362Z,19.93
2018-09-23T21:37:08.220Z,17.93
2018-09-23T21:39:37.341Z,19.13
2018-09-23T21:42:06.243Z,17.47
2018-09-23T21:44:35.103Z,18.87
2018-09-23T21:47:03.994Z,15.47
2018-09-23T21:49:32.907Z,19.57
2018-09-23T21:52:01.907Z,23.13
2018-09-23T21:54:30.571Z,16.30
2018-09-23T21:56:59.224Z,17.57
2018-09-23T21:59:28.139Z,18.90
2018-09-23T22:01:57.042Z,17.83
2018-09-23T22:04:26.150Z,15.10
2018-09-23T22:06:54.952Z,19.90
2018-09-23T22:09:24.002Z,18.20
2018-09-23T22:11:52.878Z,21.50
2018-09-23T22:14:21.831Z,19.93
2018-09-23T22:16:50.760Z,21.50
2018-09-23T22:19:19.716Z,24.17
2018-09-23T22:21:48.654Z,25.80
2018-09-23T22:24:17.440Z,21.47
2018-09-23T22:26:46.239Z,17.63
2018-09-23T22:29:15.183Z,21.20
2018-09-23T22:31:44.260Z,19.33
2018-09-23T22:34:13.148Z,19.07
2018-09-23T22:36:42.229Z,21.13
2018-09-23T22:39:11.030Z,23.93
2018-09-23T22:41:39.944Z,21.93
2018-09-23T22:44:08.575Z,23.27
2018-09-23T22:46:37.452Z,17.97
2018-09-23T22:49:06.570Z,26.63
2018-09-23T22:51:35.444Z,19.33
2018-09-23T22:54:04.154Z,17.57
2018-09-23T22:56:32.863Z,21.00
2018-09-23T22:59:01.606Z,18.40
2018-09-23T23:01:30.664Z,21.67
2018-09-23T23:03:59.618Z,19.70
2018-09-23T23:06:28.663Z,21.10
2018-09-23T23:08:57.639Z,27.57
2018-09-23T23:11:26.600Z,20.70
2018-09-23T23:13:55.449Z,17.53
2018-09-23T23:16:24.379Z,23.03
2018-09-23T23:18:53.077Z,20.17
2018-09-23T23:21:21.841Z,21.30
2018-09-23T23:23:50.476Z,16.40
2018-09-23T23:26:19.051Z,20.07
2018-09-23T23:28:47.910Z,18.47
2018-09-23T23:31:16.998Z,17.77
2018-09-23T23:33:45.983Z,17.07
2018-09-23T23:36:14.844Z,14.73
2018-09-23T23:38:43.575Z,17.50
2018-09-23T23:41:12.358Z,20.67
2018-09-23T23:43:41.212Z,20.20
2018-09-23T23:46:10.374Z,15.27
2018-09-23T23:48:39.541Z,19.10
2018-09-23T23:51:08.307Z,16.33
2018-09-23T23:53:37.031Z,15.00
2018-09-23T23:56:05.904Z,19.90
2018-09-23T23:58:35.106Z,17.90
